createdAt,value
2023-04-11T00:01:13.614Z,101415.00
2023-04-11T00:03:45.864Z,101428.00
2023-04-11T00:06:18.476Z,101426.00
2023-04-11T00:08:52.832Z,101421.00
2023-04-11T00:11:24.177Z,101423.00
2023-04-11T00:14:00.068Z,101419.00
2023-04-11T00:16:31.432Z,101432.00
2023-04-11T00:19:04.357Z,101433.00
2023-04-11T00:21:36.727Z,101439.00
2023-04-11T00:24:11.279Z,101433.00
2023-04-11T00:26:42.659Z,101440.00
2023-04-11T00:29:15.240Z,101440.00
2023-04-11T00:31:46.702Z,101440.00
2023-04-11T00:34:20.220Z,101439.00
2023-04-11T00:36:52.198Z,101433.00
2023-04-11T00:39:27.664Z,101428.00
2023-04-11T00:42:07.954Z,101430.00
2023-04-11T00:44:41.409Z,101430.00
2023-04-11T00:47:13.369Z,101424.00
2023-04-11T00:49:46.024Z,101422.00
2023-04-11T00:52:17.460Z,101420.00
2023-04-11T00:54:50.064Z,101421.00
2023-04-11T00:57:22.385Z,101411.00
2023-04-11T00:59:54.390Z,101415.00
2023-04-11T01:02:28.817Z,101413.00
2023-04-11T01:05:01.944Z,101423.00
2023-04-11T01:07:35.989Z,101430.00
2023-04-11T01:10:09.601Z,101424.00
2023-04-11T01:12:42.472Z,101417.00
2023-04-11T01:15:16.121Z,101420.00
2023-04-11T01:17:49.297Z,101419.00
2023-04-11T01:20:22.732Z,101416.00
2023-04-11T01:22:57.216Z,101417.00
2023-04-11T01:25:28.642Z,101416.00
2023-04-11T01:28:00.513Z,101418.00
2023-04-11T01:30:32.593Z,101413.00
2023-04-11T01:33:05.080Z,101410.00
2023-04-11T01:35:37.804Z,101407.00
2023-04-11T01:38:11.458Z,101417.00
2023-04-11T01:40:44.502Z,101414.00
2023-04-11T01:43:17.138Z,101403.00
2023-04-11T01:45:49.981Z,101412.00
2023-04-11T01:48:23.609Z,101413.00
2023-04-11T01:50:57.033Z,101405.00
2023-04-11T01:53:29.987Z,101402.00
2023-04-11T01:56:02.660Z,101410.00
2023-04-11T01:58:35.699Z,101407.00
2023-04-11T02:01:07.856Z,101402.00
2023-04-11T02:03:40.308Z,101392.00
2023-04-11T02:06:12.708Z,101401.00
2023-04-11T02:08:45.525Z,101401.00
2023-04-11T02:11:16.727Z,101397.00
2023-04-11T02:13:49.220Z,101399.00
2023-04-11T02:16:21.853Z,101406.00
2023-04-11T02:18:55.502Z,101395.00
2023-04-11T02:21:26.884Z,101396.00
2023-04-11T02:24:01.707Z,101390.00
2023-04-11T02:26:33.279Z,101387.00
2023-04-11T02:29:05.380Z,101392.00
2023-04-11T02:31:40.638Z,101381.00
2023-04-11T02:34:12.774Z,101382.00
2023-04-11T02:36:45.002Z,101380.00
2023-04-11T02:39:34.505Z,101379.00
2023-04-11T02:42:05.968Z,101383.00
2023-04-11T02:44:37.792Z,101375.00
2023-04-11T02:47:09.779Z,101371.00
2023-04-11T02:49:45.191Z,101381.00
2023-04-11T02:52:24.002Z,101379.00
2023-04-11T02:54:55.838Z,101372.00
2023-04-11T02:57:27.331Z,101372.00
2023-04-11T03:00:00.099Z,101364.00
2023-04-11T03:02:43.381Z,101355.00
2023-04-11T03:05:18.214Z,101351.00
2023-04-11T03:07:52.862Z,101350.00
2023-04-11T03:10:24.827Z,101345.00
2023-04-11T03:12:56.953Z,101340.00
2023-04-11T03:15:29.208Z,101342.00
2023-04-11T03:18:01.724Z,101339.00
2023-04-11T03:20:33.220Z,101347.00
2023-04-11T03:23:05.389Z,101338.00
2023-04-11T03:25:41.882Z,101325.00
2023-04-11T03:28:14.779Z,101331.00
2023-04-11T03:30:46.176Z,101327.00
2023-04-11T03:33:22.881Z,101339.00
2023-04-11T03:35:54.218Z,101325.00
2023-04-11T03:38:27.393Z,101333.00
2023-04-11T03:40:59.896Z,101330.00
2023-04-11T03:43:33.519Z,101320.00
2023-04-11T03:46:06.929Z,101323.00
2023-04-11T03:48:42.954Z,101317.00
2023-04-11T03:51:14.378Z,101313.00
2023-04-11T03:53:54.166Z,101320.00
2023-04-11T03:56:32.946Z,101320.00
2023-04-11T03:59:05.670Z,101320.00
2023-04-11T04:02:10.080Z,101324.00
2023-04-11T04:04:51.823Z,101315.00
2023-04-11T04:07:28.672Z,101322.00
2023-04-11T04:10:10.871Z,101318.00
2023-04-11T04:12:45.065Z,101319.00
2023-04-11T04:15:23.297Z,101320.00
2023-04-11T04:17:54.710Z,101316.00
2023-04-11T04:20:51.805Z,101311.00
2023-04-11T04:23:24.979Z,101320.00
2023-04-11T04:26:25.939Z,101311.00
2023-04-11T04:29:11.214Z,101307.00
2023-04-11T04:31:58.032Z,101298.00
2023-04-11T04:34:50.545Z,101294.00
2023-04-11T04:37:29.366Z,101296.00
2023-04-11T04:40:23.939Z,101287.00
2023-04-11T04:43:03.235Z,101289.00
2023-04-11T04:45:43.451Z,101297.00
2023-04-11T04:48:16.898Z,101288.00
2023-04-11T04:50:48.049Z,101287.00
2023-04-11T04:53:20.147Z,101282.00
2023-04-11T04:55:57.105Z,101284.00
2023-04-11T04:58:31.198Z,101285.00
2023-04-11T05:01:06.305Z,101294.00
2023-04-11T05:03:39.810Z,101286.00
2023-04-11T05:06:19.848Z,101282.00
2023-04-11T05:08:53.172Z,101281.00
2023-04-11T05:11:25.506Z,101274.00
2023-04-11T05:13:58.889Z,101278.00
2023-04-11T05:16:31.798Z,101282.00
2023-04-11T05:19:04.082Z,101284.00
2023-04-11T05:21:39.994Z,101278.00
2023-04-11T05:24:11.158Z,101279.00
2023-04-11T05:26:44.253Z,101284.00
2023-04-11T05:29:19.560Z,101280.00
2023-04-11T05:31:52.564Z,101274.00
2023-04-11T05:34:25.772Z,101284.00
2023-04-11T05:36:57.880Z,101277.00
2023-04-11T05:39:30.704Z,101284.00
2023-04-11T05:42:08.029Z,101284.00
2023-04-11T05:44:41.426Z,101277.00
2023-04-11T05:47:13.621Z,101271.00
2023-04-11T05:49:45.598Z,101281.00
2023-04-11T05:52:17.194Z,101269.00
2023-04-11T05:54:49.099Z,101267.00
2023-04-11T05:57:21.122Z,101265.00
2023-04-11T05:59:54.156Z,101263.00
2023-04-11T06:02:26.231Z,101268.00
2023-04-11T06:04:58.663Z,101258.00
2023-04-11T06:07:30.618Z,101267.00
2023-04-11T06:10:02.755Z,101255.00
2023-04-11T06:12:34.788Z,101259.00
2023-04-11T06:15:07.786Z,101256.00
2023-04-11T06:17:40.139Z,101248.00
2023-04-11T06:20:12.363Z,101244.00
2023-04-11T06:22:44.713Z,101247.00
2023-04-11T06:25:16.924Z,101238.00
2023-04-11T06:27:49.885Z,101243.00
2023-04-11T06:30:22.135Z,101243.00
2023-04-11T06:32:54.090Z,101248.00
2023-04-11T06:35:26.278Z,101240.00
2023-04-11T06:37:58.264Z,101242.00
2023-04-11T06:40:30.243Z,101249.00
2023-04-11T06:43:03.138Z,101244.00
2023-04-11T06:45:35.102Z,101240.00
2023-04-11T06:48:06.956Z,101242.00
2023-04-11T06:50:41.089Z,101237.00
2023-04-11T06:53:13.144Z,101240.00
2023-04-11T06:55:44.624Z,101230.00
2023-04-11T06:58:16.246Z,101232.00
2023-04-11T07:00:47.563Z,101234.00
2023-04-11T07:03:19.436Z,101239.00
2023-04-11T07:05:51.780Z,101247.00
2023-04-11T07:08:23.416Z,101243.00
2023-04-11T07:10:55.422Z,101242.00
2023-04-11T07:13:27.749Z,101239.00
2023-04-11T07:15:59.929Z,101236.00
2023-04-11T07:18:33.433Z,101238.00
2023-04-11T07:21:04.521Z,101229.00
2023-04-11T07:23:35.979Z,101231.00
2023-04-11T07:26:10.168Z,101237.00
2023-04-11T07:28:42.672Z,101233.00
2023-04-11T07:31:15.046Z,101231.00
2023-04-11T07:33:46.814Z,101233.00
2023-04-11T07:36:18.657Z,101245.00
2023-04-11T07:38:50.536Z,101236.00
2023-04-11T07:41:22.128Z,101236.00
2023-04-11T07:43:54.052Z,101238.00
2023-04-11T07:46:25.658Z,101249.00
2023-04-11T07:48:57.495Z,101248.00
2023-04-11T07:51:29.346Z,101248.00
2023-04-11T07:54:00.826Z,101250.00
2023-04-11T07:56:32.287Z,101253.00
2023-04-11T07:59:04.484Z,101257.00
2023-04-11T08:01:35.709Z,101255.00
2023-04-11T08:04:07.552Z,101255.00
2023-04-11T08:06:38.750Z,101261.00
2023-04-11T08:09:11.361Z,101258.00
2023-04-11T08:11:42.578Z,101254.00
2023-04-11T08:14:14.303Z,101264.00
2023-04-11T08:16:46.653Z,101273.00
2023-04-11T08:19:19.356Z,101273.00
2023-04-11T08:21:50.613Z,101267.00
2023-04-11T08:24:22.662Z,101271.00
2023-04-11T08:26:54.701Z,101287.00
2023-04-11T08:29:26.862Z,101280.00
2023-04-11T08:31:59.075Z,101289.00
2023-04-11T08:34:32.808Z,101286.00
2023-04-11T08:37:04.785Z,101288.00
2023-04-11T08:39:36.647Z,101284.00
2023-04-11T08:42:08.824Z,101286.00
2023-04-11T08:44:40.669Z,101283.00
2023-04-11T08:47:13.284Z,101290.00
2023-04-11T08:49:45.519Z,101285.00
2023-04-11T08:52:20.364Z,101289.00
2023-04-11T08:54:58.331Z,101273.00
2023-04-11T08:57:32.544Z,101273.00
2023-04-11T09:00:14.929Z,101279.00
2023-04-11T09:03:14.859Z,101276.00
2023-04-11T09:05:49.551Z,101280.00
2023-04-11T09:08:21.748Z,101270.00
2023-04-11T09:10:53.492Z,101274.00
2023-04-11T09:13:29.100Z,101277.00
2023-04-11T09:16:13.919Z,101289.00
2023-04-11T09:18:48.741Z,101295.00
2023-04-11T09:21:21.975Z,101292.00
2023-04-11T09:23:53.844Z,101290.00
2023-04-11T09:26:30.796Z,101294.00
2023-04-11T09:29:01.737Z,101284.00
2023-04-11T09:31:46.814Z,101293.00
2023-04-11T09:34:29.154Z,101292.00
2023-04-11T09:37:02.443Z,101297.00
2023-04-11T09:39:34.692Z,101294.00
2023-04-11T09:42:26.741Z,101294.00
2023-04-11T09:44:58.077Z,101299.00
2023-04-11T09:47:37.397Z,101293.00
2023-04-11T09:50:09.493Z,101300.00
2023-04-11T09:52:46.392Z,101308.00
2023-04-11T09:55:21.918Z,101298.00
2023-04-11T09:57:55.775Z,101306.00
2023-04-11T10:00:33.486Z,101307.00
2023-04-11T10:03:05.791Z,101303.00
2023-04-11T10:05:40.147Z,101312.00
2023-04-11T10:08:29.076Z,101312.00
2023-04-11T10:11:02.606Z,101310.00
2023-04-11T10:13:47.635Z,101318.00
2023-04-11T10:16:21.501Z,101304.00
2023-04-11T10:18:58.296Z,101318.00
2023-04-11T10:21:32.169Z,101327.00
2023-04-11T10:24:24.009Z,101329.00
2023-04-11T10:26:58.853Z,101325.00
2023-04-11T10:29:41.580Z,101324.00
2023-04-11T10:32:23.652Z,101331.00
2023-04-11T10:34:57.198Z,101329.00
2023-04-11T10:37:36.518Z,101338.00
2023-04-11T10:40:12.601Z,101336.00
2023-04-11T10:42:47.877Z,101336.00
2023-04-11T10:45:29.411Z,101336.00
2023-04-11T10:48:12.829Z,101334.00
2023-04-11T10:50:47.909Z,101335.00
2023-04-11T10:53:39.627Z,101340.00
2023-04-11T10:56:11.381Z,101342.00
2023-04-11T10:58:43.526Z,101359.00
2023-04-11T11:01:26.504Z,101349.00
2023-04-11T11:04:08.845Z,101347.00
2023-04-11T11:06:47.382Z,101347.00
2023-04-11T11:09:26.769Z,101362.00
2023-04-11T11:12:15.453Z,101344.00
2023-04-11T11:14:49.129Z,101352.00
2023-04-11T11:17:20.830Z,101349.00
2023-04-11T11:19:53.467Z,101351.00
2023-04-11T11:22:27.694Z,101358.00
2023-04-11T11:25:10.975Z,101356.00
2023-04-11T11:27:42.312Z,101364.00
2023-04-11T11:30:15.880Z,101362.00
2023-04-11T11:32:47.914Z,101363.00
2023-04-11T11:35:19.758Z,101371.00
2023-04-11T11:37:56.136Z,101357.00
2023-04-11T11:40:27.462Z,101355.00
2023-04-11T11:42:59.033Z,101370.00
2023-04-11T11:45:31.132Z,101371.00
2023-04-11T11:48:03.266Z,101363.00
2023-04-11T11:50:37.322Z,101361.00
2023-04-11T11:53:19.023Z,101358.00
2023-04-11T11:55:50.704Z,101363.00
2023-04-11T11:58:23.206Z,101364.00
2023-04-11T12:00:56.597Z,101361.00
2023-04-11T12:03:30.976Z,101357.00
2023-04-11T12:06:02.928Z,101349.00
2023-04-11T12:08:37.620Z,101347.00
2023-04-11T12:11:18.533Z,101355.00
2023-04-11T12:13:55.818Z,101348.00
2023-04-11T12:19:38.488Z,101350.00
2023-04-11T12:22:10.607Z,101350.00
2023-04-11T12:24:42.670Z,101349.00
2023-04-11T12:27:14.762Z,101340.00
2023-04-11T12:29:47.921Z,101343.00
2023-04-11T12:32:20.030Z,101345.00
2023-04-11T12:34:52.365Z,101348.00
2023-04-11T12:37:24.727Z,101341.00
2023-04-11T12:39:57.576Z,101347.00
2023-04-11T12:42:29.898Z,101339.00
2023-04-11T12:45:01.916Z,101338.00
2023-04-11T12:47:33.752Z,101336.00
2023-04-11T12:50:08.214Z,101326.00
2023-04-11T12:52:40.053Z,101340.00
2023-04-11T13:48:12.229Z,101259.00
2023-04-11T13:50:44.369Z,101258.00
2023-04-11T13:53:16.557Z,101258.00
2023-04-11T13:55:49.568Z,101254.00
2023-04-11T13:58:21.809Z,101244.00
2023-04-11T14:00:53.947Z,101247.00
2023-04-11T14:03:26.428Z,101237.00
2023-04-11T14:05:59.084Z,101238.00
2023-04-11T14:08:32.317Z,101229.00
2023-04-11T14:16:30.609Z,101212.00
2023-04-11T14:19:03.389Z,101214.00
2023-04-11T14:21:35.717Z,101199.00
2023-04-11T14:26:51.441Z,101196.00
2023-04-11T14:32:11.886Z,101191.00
2023-04-11T14:34:43.103Z,101176.00
2023-04-11T14:37:15.374Z,101179.00
2023-04-11T14:39:47.508Z,101181.00
2023-04-11T14:42:18.903Z,101171.00
2023-04-11T14:44:51.495Z,101170.00
2023-04-11T14:47:28.886Z,101161.00
2023-04-11T14:50:00.835Z,101163.00
2023-04-11T14:58:11.021Z,101160.00
2023-04-11T15:00:43.012Z,101148.00
2023-04-11T15:05:34.551Z,101150.00
2023-04-11T15:08:07.245Z,101140.00
2023-04-11T15:15:39.889Z,101139.00
2023-04-11T15:18:31.038Z,101125.00
2023-04-11T15:29:29.877Z,101101.00
2023-04-11T15:51:45.612Z,101062.00
2023-04-11T15:54:42.347Z,101053.00
2023-04-11T15:59:54.973Z,101042.00
2023-04-11T16:07:26.805Z,101028.00
2023-04-11T16:09:59.145Z,101020.00
2023-04-11T16:12:34.062Z,101016.00
2023-04-11T16:15:06.204Z,101007.00
2023-04-11T16:19:58.935Z,101012.00
2023-04-11T16:22:31.294Z,100994.00
2023-04-11T16:27:51.438Z,100983.00
2023-04-11T16:37:59.265Z,100961.00
2023-04-11T16:45:35.982Z,100953.00
2023-04-11T16:48:10.669Z,100936.00
2023-04-11T16:53:03.998Z,100931.00
2023-04-11T16:58:22.821Z,100925.00
2023-04-11T17:01:02.959Z,100916.00
2023-04-11T17:04:20.899Z,100914.00
2023-04-11T17:06:52.283Z,100904.00
2023-04-11T17:09:23.744Z,100902.00
2023-04-11T17:11:55.179Z,100899.00
2023-04-11T17:16:47.212Z,100892.00
2023-04-11T17:29:31.203Z,100882.00
2023-04-11T17:34:31.618Z,100884.00
